createdAt,value
2019-03-04T00:02:23.057Z,8.91
2019-03-04T00:04:49.647Z,8.79
2019-03-04T00:07:16.412Z,8.82
2019-03-04T00:09:43.111Z,8.81
2019-03-04T00:12:09.834Z,8.89
2019-03-04T00:14:36.481Z,8.91
2019-03-04T00:17:04.065Z,8.81
2019-03-04T00:19:30.766Z,8.83
2019-03-04T00:21:57.389Z,8.93
2019-03-04T00:24:24.076Z,8.82
2019-03-04T00:26:50.661Z,8.76
2019-03-04T00:29:19.340Z,8.68
2019-03-04T00:31:45.914Z,8.87
2019-03-04T00:34:12.473Z,8.91
2019-03-04T00:36:39.227Z,8.73
2019-03-04T00:39:09.720Z,8.89
2019-03-04T00:41:38.367Z,8.88
2019-03-04T00:44:05.357Z,8.92
2019-03-04T00:46:33.244Z,8.77
2019-03-04T00:48:59.867Z,8.88
2019-03-04T00:51:26.553Z,8.94
2019-03-04T00:53:53.129Z,8.98
2019-03-04T00:56:19.796Z,9.00
2019-03-04T00:58:46.444Z,8.86
2019-03-04T01:01:13.121Z,8.87
2019-03-04T01:03:40.080Z,8.96
2019-03-04T01:06:06.875Z,8.84
2019-03-04T01:08:33.474Z,8.80
2019-03-04T01:11:00.244Z,8.76
2019-03-04T01:13:26.942Z,8.89
2019-03-04T01:15:53.777Z,8.95
2019-03-04T01:18:20.526Z,8.91
2019-03-04T01:20:47.519Z,8.95
2019-03-04T01:23:14.105Z,8.98
2019-03-04T01:25:41.682Z,8.98
2019-03-04T01:28:08.406Z,8.91
2019-03-04T01:30:34.975Z,8.97
2019-03-04T01:33:01.564Z,8.86
2019-03-04T01:35:28.384Z,8.76
2019-03-04T01:38:51.222Z,8.97
2019-03-04T01:41:17.999Z,8.86
2019-03-04T01:43:44.622Z,8.96
2019-03-04T01:46:11.182Z,9.02
2019-03-04T01:48:37.802Z,8.87
2019-03-04T01:51:05.869Z,8.99
2019-03-04T01:53:32.435Z,8.76
2019-03-04T01:55:59.159Z,8.92
2019-03-04T01:58:25.847Z,8.86
2019-03-04T02:00:52.393Z,8.88
2019-03-04T02:03:18.967Z,8.83
2019-03-04T02:05:45.731Z,8.90
2019-03-04T02:08:12.796Z,8.96
2019-03-04T02:10:39.376Z,8.97
2019-03-04T02:13:06.240Z,8.88
2019-03-04T02:15:33.065Z,8.96
2019-03-04T02:17:59.618Z,8.96
2019-03-04T02:20:26.212Z,8.78
2019-03-04T02:22:52.991Z,8.80
2019-03-04T02:25:25.271Z,8.96
2019-03-04T02:27:53.712Z,8.90
2019-03-04T02:30:25.790Z,8.99
2019-03-04T02:32:52.410Z,8.96
2019-03-04T02:35:19.334Z,8.82
2019-03-04T02:37:46.005Z,8.79
2019-03-04T02:40:13.406Z,8.91
2019-03-04T02:42:39.978Z,8.79
2019-03-04T02:45:12.448Z,9.04
2019-03-04T02:47:39.288Z,8.90
2019-03-04T02:50:08.743Z,8.90
2019-03-04T02:52:36.677Z,8.96
2019-03-04T02:55:06.577Z,9.02
2019-03-04T02:57:33.230Z,8.98
2019-03-04T02:59:59.883Z,9.02
2019-03-04T03:02:26.804Z,8.86
2019-03-04T03:04:53.598Z,8.85
2019-03-04T03:07:21.360Z,8.97
2019-03-04T03:09:47.960Z,8.95
2019-03-04T03:12:14.627Z,8.97
2019-03-04T03:14:41.190Z,8.90
2019-03-04T03:17:07.908Z,8.98
2019-03-04T03:19:34.480Z,8.93
2019-03-04T03:22:01.280Z,8.88
2019-03-04T03:24:28.025Z,8.89
2019-03-04T03:26:54.620Z,8.89
2019-03-04T03:29:21.189Z,8.96
2019-03-04T03:31:47.779Z,8.98
2019-03-04T03:34:14.432Z,8.88
2019-03-04T03:36:41.022Z,8.91
2019-03-04T03:40:04.810Z,8.93
2019-03-04T03:42:31.541Z,8.88
2019-03-04T03:44:58.098Z,8.85
2019-03-04T03:47:24.645Z,8.80
2019-03-04T03:49:51.282Z,8.85
2019-03-04T03:52:17.957Z,8.89
2019-03-04T03:54:44.609Z,8.74
2019-03-04T03:57:11.257Z,8.86
2019-03-04T03:59:37.854Z,8.79
2019-03-04T04:02:04.704Z,8.81
2019-03-04T04:04:31.453Z,8.79
2019-03-04T04:06:58.150Z,8.81
2019-03-04T04:09:24.778Z,8.83
2019-03-04T04:11:51.455Z,8.74
2019-03-04T04:14:18.215Z,8.79
2019-03-04T04:16:44.788Z,8.87
2019-03-04T04:19:11.331Z,8.81
2019-03-04T04:21:38.098Z,8.82
2019-03-04T04:24:04.938Z,8.75
2019-03-04T04:26:31.507Z,8.70
2019-03-04T04:29:00.106Z,8.81
2019-03-04T04:31:26.776Z,8.76
2019-03-04T04:33:53.499Z,8.89
2019-03-04T04:36:20.120Z,8.98
2019-03-04T04:38:46.762Z,8.76
2019-03-04T04:41:13.313Z,8.85
2019-03-04T04:43:39.998Z,8.96
2019-03-04T04:46:06.944Z,9.04
2019-03-04T04:48:33.594Z,8.95
2019-03-04T04:51:00.195Z,8.97
2019-03-04T04:53:27.022Z,8.86
2019-03-04T04:55:53.593Z,8.89
2019-03-04T04:58:20.660Z,8.75
2019-03-04T05:00:47.230Z,8.91
2019-03-04T05:03:13.785Z,9.01
2019-03-04T05:05:40.374Z,8.96
2019-03-04T05:08:06.942Z,8.93
2019-03-04T05:10:33.633Z,9.00
2019-03-04T05:13:00.471Z,9.08
2019-03-04T05:15:27.280Z,9.00
2019-03-04T05:17:53.854Z,9.02
2019-03-04T05:21:16.693Z,8.97
2019-03-04T05:23:43.366Z,9.01
2019-03-04T05:26:10.060Z,9.00
2019-03-04T05:28:37.960Z,9.01
2019-03-04T05:31:04.694Z,8.96
2019-03-04T05:33:31.325Z,8.93
2019-03-04T05:35:57.899Z,8.83
2019-03-04T05:38:24.575Z,8.76
2019-03-04T05:40:51.255Z,8.82
2019-03-04T05:43:18.050Z,9.04
2019-03-04T05:45:44.629Z,9.08
2019-03-04T05:48:11.158Z,9.05
2019-03-04T05:50:37.756Z,8.94
2019-03-04T05:53:04.587Z,9.01
2019-03-04T05:55:31.390Z,8.92
2019-03-04T05:57:58.168Z,8.94
2019-03-04T06:00:26.716Z,8.86
2019-03-04T06:02:58.007Z,8.96
2019-03-04T06:05:24.653Z,9.03
2019-03-04T06:07:53.166Z,9.02
2019-03-04T06:10:20.056Z,9.04
2019-03-04T06:12:46.757Z,9.06
2019-03-04T06:15:17.179Z,9.04
2019-03-04T06:17:43.759Z,9.08
2019-03-04T06:20:15.480Z,9.15
2019-03-04T06:22:42.152Z,9.19
2019-03-04T06:25:13.691Z,9.23
2019-03-04T06:27:40.351Z,9.15
2019-03-04T06:30:12.708Z,9.20
2019-03-04T06:32:39.784Z,9.27
2019-03-04T06:35:10.160Z,9.20
2019-03-04T06:37:36.904Z,9.38
2019-03-04T06:40:09.211Z,9.42
2019-03-04T06:42:35.982Z,9.38
2019-03-04T06:45:07.855Z,9.43
2019-03-04T06:47:34.458Z,9.37
2019-03-04T06:50:01.245Z,9.31
2019-03-04T06:52:29.330Z,9.38
2019-03-04T06:55:01.808Z,9.48
2019-03-04T06:57:29.841Z,9.49
2019-03-04T07:00:00.354Z,9.47
2019-03-04T07:02:28.895Z,9.31
2019-03-04T07:05:01.228Z,9.47
2019-03-04T07:07:27.917Z,9.41
2019-03-04T07:09:54.492Z,9.45
2019-03-04T07:12:21.297Z,9.56
2019-03-04T07:14:47.902Z,9.63
2019-03-04T07:17:14.479Z,9.73
2019-03-04T07:19:41.041Z,9.74
2019-03-04T07:22:07.799Z,9.72
2019-03-04T07:24:34.397Z,9.80
2019-03-04T07:27:01.060Z,9.82
2019-03-04T07:29:27.721Z,9.85
2019-03-04T07:31:54.303Z,9.89
2019-03-04T07:34:20.947Z,9.91
2019-03-04T07:36:47.818Z,9.84
2019-03-04T07:39:14.650Z,9.93
2019-03-04T07:41:41.350Z,9.96
2019-03-04T07:44:08.171Z,10.09
2019-03-04T07:46:34.845Z,10.07
2019-03-04T07:49:01.467Z,10.09
2019-03-04T07:51:28.629Z,10.02
2019-03-04T07:53:55.336Z,10.07
2019-03-04T07:56:22.226Z,10.02
2019-03-04T07:58:49.110Z,10.07
2019-03-04T08:01:15.822Z,10.30
2019-03-04T08:03:42.672Z,10.39
2019-03-04T08:06:09.483Z,10.50
2019-03-04T08:08:38.053Z,10.52
2019-03-04T08:11:10.524Z,10.63
2019-03-04T08:13:42.941Z,10.66
2019-03-04T08:16:10.872Z,10.84
2019-03-04T08:18:37.483Z,10.92
2019-03-04T08:21:04.467Z,11.02
2019-03-04T08:23:31.116Z,11.07
2019-03-04T08:25:57.904Z,11.31
2019-03-04T08:28:24.595Z,11.38
2019-03-04T08:30:51.613Z,11.56
2019-03-04T08:33:20.336Z,11.69
2019-03-04T08:35:47.470Z,11.77
2019-03-04T08:38:14.283Z,11.80
2019-03-04T08:40:42.087Z,11.82
2019-03-04T08:43:08.935Z,11.92
2019-03-04T08:45:35.880Z,12.01
2019-03-04T08:48:03.018Z,12.02
2019-03-04T08:50:29.661Z,11.94
2019-03-04T08:52:56.437Z,12.18
2019-03-04T08:55:23.108Z,12.28
2019-03-04T08:57:49.923Z,12.38
2019-03-04T09:00:20.757Z,12.08
2019-03-04T09:02:47.654Z,12.25
2019-03-04T09:05:18.099Z,12.32
2019-03-04T09:07:45.007Z,12.24
2019-03-04T09:10:17.347Z,12.32
2019-03-04T09:12:44.281Z,12.60
2019-03-04T09:15:13.394Z,12.51
2019-03-04T09:17:40.297Z,12.66
2019-03-04T09:20:10.594Z,12.75
2019-03-04T09:22:37.304Z,12.80
2019-03-04T09:25:09.443Z,12.92
2019-03-04T09:27:36.219Z,12.86
2019-03-04T09:30:08.503Z,13.04
2019-03-04T09:32:35.210Z,13.09
2019-03-04T09:35:04.110Z,13.08
2019-03-04T09:37:30.881Z,13.22
2019-03-04T09:39:58.716Z,13.19
2019-03-04T09:42:25.378Z,13.40
2019-03-04T09:44:51.938Z,13.53
2019-03-04T09:47:18.633Z,13.58
2019-03-04T09:49:45.240Z,13.58
2019-03-04T09:52:11.809Z,13.64
2019-03-04T09:54:38.555Z,13.67
2019-03-04T09:57:05.335Z,13.63
2019-03-04T09:59:31.883Z,13.62
2019-03-04T10:01:58.889Z,13.84
2019-03-04T10:04:29.240Z,13.84
2019-03-04T10:07:01.528Z,13.70
2019-03-04T10:09:33.961Z,13.78
2019-03-04T10:12:06.282Z,13.63
2019-03-04T10:14:36.770Z,13.76
2019-03-04T10:17:09.080Z,13.92
2019-03-04T10:19:41.535Z,13.96
2019-03-04T10:22:11.929Z,14.27
2019-03-04T10:24:42.363Z,14.36
2019-03-04T10:27:12.747Z,14.36
2019-03-04T10:29:45.070Z,14.44
2019-03-04T10:32:17.406Z,14.46
2019-03-04T10:34:49.765Z,14.54
2019-03-04T10:37:20.177Z,14.54
2019-03-04T10:39:52.577Z,14.52
2019-03-04T10:42:24.944Z,14.70
2019-03-04T10:44:57.315Z,14.64
2019-03-04T10:47:24.036Z,14.70
2019-03-04T10:49:50.827Z,14.67
2019-03-04T10:52:17.490Z,14.73
2019-03-04T10:54:44.203Z,14.74
2019-03-04T10:58:07.375Z,14.91
2019-03-04T11:00:34.678Z,14.89
2019-03-04T11:03:01.308Z,14.63
2019-03-04T11:05:28.079Z,14.73
2019-03-04T11:07:54.754Z,14.71
2019-03-04T11:10:22.693Z,14.80
2019-03-04T11:12:49.477Z,15.04
2019-03-04T11:15:22.177Z,14.99
2019-03-04T11:17:49.064Z,15.10
2019-03-04T11:20:16.087Z,15.34
2019-03-04T11:22:42.948Z,15.39
2019-03-04T11:25:10.268Z,15.37
2019-03-04T11:27:37.249Z,15.50
2019-03-04T11:30:09.786Z,15.48
2019-03-04T11:32:37.300Z,15.51
2019-03-04T11:35:09.535Z,15.69
2019-03-04T11:37:36.214Z,15.69
2019-03-04T11:40:08.850Z,15.74
2019-03-04T11:42:35.537Z,15.45
2019-03-04T11:45:07.483Z,15.47
2019-03-04T11:47:34.370Z,15.49
2019-03-04T11:50:01.160Z,15.52
2019-03-04T11:52:27.745Z,15.42
2019-03-04T11:54:54.827Z,15.11
2019-03-04T11:57:21.714Z,15.35
2019-03-04T11:59:48.674Z,15.28
2019-03-04T12:02:17.216Z,15.27
2019-03-04T12:04:43.755Z,15.24
2019-03-04T12:07:10.447Z,15.20
2019-03-04T12:09:37.123Z,15.19
2019-03-04T12:12:04.185Z,15.15
2019-03-04T12:14:30.949Z,15.22
2019-03-04T12:16:57.922Z,15.08
2019-03-04T12:19:24.880Z,15.13
2019-03-04T12:21:51.775Z,15.24
2019-03-04T12:24:18.508Z,15.23
2019-03-04T12:26:45.368Z,15.15
2019-03-04T12:29:11.942Z,15.18
2019-03-04T12:31:40.552Z,15.14
2019-03-04T12:34:07.364Z,15.12
2019-03-04T12:36:33.939Z,15.13
2019-03-04T12:39:00.620Z,15.17
2019-03-04T12:41:27.426Z,15.09
2019-03-04T12:43:54.024Z,15.23
2019-03-04T12:46:21.866Z,15.41
2019-03-04T12:48:49.883Z,15.60
2019-03-04T12:51:23.170Z,15.54
2019-03-04T12:53:45.229Z,15.66
2019-03-04T12:56:11.891Z,15.64
2019-03-04T12:58:40.373Z,15.83
2019-03-04T13:01:10.596Z,15.90
2019-03-04T13:03:37.279Z,15.93
2019-03-04T13:06:04.175Z,15.93
2019-03-04T13:08:30.779Z,15.93
2019-03-04T13:10:57.387Z,15.76
2019-03-04T13:13:24.123Z,15.81
2019-03-04T13:15:51.025Z,15.80
2019-03-04T13:18:17.772Z,15.86
2019-03-04T13:20:44.552Z,15.88
2019-03-04T13:23:12.014Z,15.85
2019-03-04T13:25:38.857Z,15.90
2019-03-04T13:28:08.562Z,15.83
2019-03-04T13:30:39.013Z,15.84
2019-03-04T13:33:05.877Z,15.82
2019-03-04T13:35:34.586Z,15.77
2019-03-04T13:38:01.423Z,15.84
2019-03-04T13:40:30.118Z,15.92
2019-03-04T13:42:56.783Z,15.86
2019-03-04T13:45:24.185Z,15.88
2019-03-04T13:47:50.842Z,15.86
2019-03-04T13:50:42.232Z,15.75
2019-03-04T13:53:08.991Z,15.79
2019-03-04T13:55:35.866Z,15.78
2019-03-04T13:58:02.876Z,15.94
2019-03-04T14:00:54.160Z,15.87
2019-03-04T14:03:20.755Z,15.79
2019-03-04T14:05:47.604Z,15.92
2019-03-04T14:08:14.709Z,15.83
2019-03-04T14:10:44.459Z,15.89
2019-03-04T14:13:11.575Z,15.87
2019-03-04T14:15:40.976Z,15.97
2019-03-04T14:18:07.843Z,16.06
2019-03-04T14:20:34.545Z,16.18
2019-03-04T14:23:02.453Z,16.12
2019-03-04T14:25:29.216Z,16.17
2019-03-04T14:27:59.019Z,16.08
2019-03-04T14:30:25.959Z,16.06
2019-03-04T14:32:52.651Z,16.11
2019-03-04T14:35:19.576Z,16.07
2019-03-04T14:37:46.513Z,15.86
2019-03-04T14:40:16.861Z,15.90
2019-03-04T14:42:44.043Z,15.96
2019-03-04T14:45:15.779Z,15.80
2019-03-04T14:47:42.599Z,15.83
2019-03-04T14:50:12.949Z,15.76
2019-03-04T14:52:39.877Z,15.73
2019-03-04T14:55:11.838Z,15.72
2019-03-04T14:57:38.785Z,15.82
2019-03-04T15:00:11.346Z,15.76
2019-03-04T15:02:38.278Z,15.74
2019-03-04T15:05:06.709Z,15.71
2019-03-04T15:07:33.359Z,15.69
2019-03-04T15:09:59.934Z,15.58
2019-03-04T15:12:26.767Z,15.60
2019-03-04T15:16:08.893Z,15.58
2019-03-04T15:18:35.529Z,15.51
2019-03-04T15:21:02.402Z,15.50
2019-03-04T15:23:29.075Z,15.58
2019-03-04T15:25:55.675Z,15.45
2019-03-04T15:29:01.270Z,15.49
2019-03-04T15:31:27.951Z,15.44
2019-03-04T15:33:54.567Z,15.38
2019-03-04T15:36:21.289Z,15.32
2019-03-04T15:38:47.902Z,15.33
2019-03-04T15:41:14.477Z,15.26
2019-03-04T15:43:41.048Z,15.29
2019-03-04T15:46:08.005Z,15.34
2019-03-04T15:48:34.573Z,15.26
2019-03-04T15:51:01.472Z,15.26
2019-03-04T15:53:28.316Z,15.22
2019-03-04T15:55:55.199Z,15.21
2019-03-04T15:58:21.803Z,15.28
2019-03-04T16:00:48.773Z,15.27
2019-03-04T16:03:15.307Z,15.29
2019-03-04T16:05:42.754Z,15.33
2019-03-04T16:08:09.612Z,15.36
2019-03-04T16:10:36.991Z,15.31
2019-03-04T16:13:06.084Z,15.34
2019-03-04T16:16:28.792Z,15.39
2019-03-04T16:18:55.420Z,15.38
2019-03-04T16:21:22.116Z,15.33
2019-03-04T16:23:49.025Z,15.35
2019-03-04T16:26:15.696Z,15.35
2019-03-04T16:28:42.459Z,15.35
2019-03-04T16:31:09.041Z,15.28
2019-03-04T16:33:35.681Z,15.07
2019-03-04T16:36:02.544Z,15.01
2019-03-04T16:38:29.260Z,14.93
2019-03-04T16:40:55.937Z,14.81
2019-03-04T16:43:22.795Z,14.91
2019-03-04T16:45:49.438Z,14.87
2019-03-04T16:48:16.237Z,14.82
2019-03-04T16:50:46.489Z,14.81
2019-03-04T16:53:18.835Z,14.79
2019-03-04T16:55:45.632Z,14.72
2019-03-04T16:58:12.465Z,14.71
2019-03-04T17:00:39.842Z,14.70
2019-03-04T17:03:07.008Z,14.64
2019-03-04T17:05:33.996Z,14.62
2019-03-04T17:08:02.140Z,14.56
2019-03-04T17:10:29.155Z,14.46
2019-03-04T17:12:55.924Z,14.46
2019-03-04T17:15:23.233Z,14.45
2019-03-04T17:17:50.243Z,14.48
2019-03-04T17:20:17.674Z,14.53
2019-03-04T17:22:44.862Z,14.48
2019-03-04T17:25:17.179Z,14.44
2019-03-04T17:27:44.154Z,14.38
2019-03-04T17:30:15.574Z,14.33
2019-03-04T17:32:42.742Z,14.31
2019-03-04T17:35:14.383Z,14.32
2019-03-04T17:37:42.553Z,14.31
2019-03-04T17:40:13.416Z,14.31
2019-03-04T17:42:40.674Z,14.28
2019-03-04T17:45:11.836Z,14.21
2019-03-04T17:47:39.024Z,14.26
2019-03-04T17:50:11.066Z,14.27
2019-03-04T17:52:38.072Z,14.18
2019-03-04T17:55:09.938Z,14.27
2019-03-04T17:57:37.644Z,14.29
2019-03-04T18:00:10.226Z,14.28
2019-03-04T18:02:37.154Z,14.24
2019-03-04T18:05:07.518Z,14.23
2019-03-04T18:07:35.398Z,14.27
2019-03-04T18:10:04.949Z,14.29
2019-03-04T18:12:32.033Z,14.28
2019-03-04T18:14:58.832Z,14.31
2019-03-04T18:17:27.252Z,14.33
2019-03-04T18:19:54.079Z,14.26
2019-03-04T18:22:20.758Z,14.34
2019-03-04T18:24:47.565Z,14.31
2019-03-04T18:27:14.344Z,14.35
2019-03-04T18:29:46.654Z,14.35
2019-03-04T18:32:18.937Z,14.36
2019-03-04T18:34:50.179Z,14.35
2019-03-04T18:37:20.698Z,14.22
2019-03-04T18:39:53.121Z,14.30
2019-03-04T18:42:24.086Z,14.30
2019-03-04T18:44:56.603Z,14.35
2019-03-04T18:47:29.073Z,14.33
2019-03-04T18:49:55.711Z,14.36
2019-03-04T18:52:22.511Z,14.35
2019-03-04T18:54:52.379Z,14.43
2019-03-04T18:57:19.396Z,14.42
2019-03-04T18:59:46.260Z,14.44
2019-03-04T19:02:13.156Z,14.47
2019-03-04T19:04:39.787Z,14.56
2019-03-04T19:07:06.875Z,14.59
2019-03-04T19:09:33.836Z,14.70
2019-03-04T19:12:00.529Z,14.72
2019-03-04T19:14:27.326Z,14.76
2019-03-04T19:16:54.188Z,14.78
2019-03-04T19:19:21.031Z,14.86
2019-03-04T19:21:47.801Z,14.82
2019-03-04T19:25:10.951Z,14.81
2019-03-04T19:27:37.781Z,14.91
2019-03-04T19:30:11.470Z,14.80
2019-03-04T19:32:38.161Z,14.90
2019-03-04T19:35:08.986Z,14.89
2019-03-04T19:37:35.628Z,14.94
2019-03-04T19:40:06.369Z,14.93
2019-03-04T19:42:33.477Z,14.93
2019-03-04T19:45:00.091Z,14.87
2019-03-04T19:47:29.378Z,14.95
2019-03-04T19:49:56.174Z,14.75
2019-03-04T19:52:23.953Z,14.82
2019-03-04T19:54:51.025Z,14.82
2019-03-04T19:57:17.975Z,14.84
2019-03-04T19:59:44.970Z,14.80
2019-03-04T20:02:14.462Z,14.81
2019-03-04T20:04:41.353Z,14.75
2019-03-04T20:07:08.259Z,14.59
2019-03-04T20:09:35.175Z,14.58
2019-03-04T20:12:03.947Z,14.67
2019-03-04T20:14:30.513Z,14.70
2019-03-04T20:16:57.540Z,14.61
2019-03-04T20:19:24.461Z,14.67
2019-03-04T20:21:53.936Z,14.64
2019-03-04T20:24:21.289Z,14.60
2019-03-04T20:26:48.993Z,14.47
2019-03-04T20:30:12.096Z,14.39
2019-03-04T20:32:39.478Z,14.49
2019-03-04T20:35:10.518Z,14.45
2019-03-04T20:37:44.409Z,14.29
2019-03-04T20:40:11.627Z,14.37
2019-03-04T20:42:38.626Z,14.41
2019-03-04T20:45:10.612Z,14.48
2019-03-04T20:47:37.391Z,14.31
2019-03-04T20:50:09.660Z,14.38
2019-03-04T20:52:36.687Z,14.39
2019-03-04T20:55:07.638Z,14.38
2019-03-04T20:57:34.687Z,14.36
2019-03-04T21:00:02.399Z,14.22
2019-03-04T21:02:31.200Z,14.28
2019-03-04T21:04:58.009Z,14.09
2019-03-04T21:07:24.671Z,14.05
2019-03-04T21:09:52.999Z,14.15
2019-03-04T21:12:21.712Z,14.04
2019-03-04T21:14:49.084Z,14.03
2019-03-04T21:17:16.111Z,13.98
2019-03-04T21:19:43.106Z,13.94
2019-03-04T21:22:10.194Z,14.06
2019-03-04T21:24:37.561Z,14.09
2019-03-04T21:27:04.655Z,13.99
2019-03-04T21:29:54.999Z,13.98
2019-03-04T21:32:27.637Z,13.94
2019-03-04T21:35:00.341Z,13.90
2019-03-04T21:37:32.879Z,13.80
2019-03-04T21:40:05.182Z,13.72
2019-03-04T21:42:38.530Z,13.82
2019-03-04T21:45:12.831Z,13.81
2019-03-04T21:47:44.509Z,13.73
2019-03-04T21:50:16.958Z,13.67
2019-03-04T21:52:49.630Z,13.66
2019-03-04T21:55:21.980Z,13.62
2019-03-04T21:57:52.122Z,13.60
2019-03-04T22:00:24.970Z,13.51
2019-03-04T22:02:57.385Z,13.62
2019-03-04T22:05:25.390Z,13.63
2019-03-04T22:07:52.620Z,13.59
2019-03-04T22:10:19.665Z,13.54
2019-03-04T22:12:46.824Z,13.52
2019-03-04T22:15:15.626Z,13.47
2019-03-04T22:17:42.682Z,13.43
2019-03-04T22:20:13.294Z,13.38
2019-03-04T22:22:40.598Z,13.38
2019-03-04T22:25:10.681Z,13.37
2019-03-04T22:27:37.800Z,13.27
2019-03-04T22:30:10.252Z,13.38
2019-03-04T22:32:37.146Z,13.27
2019-03-04T22:35:09.497Z,13.21
2019-03-04T22:37:36.362Z,13.24
2019-03-04T22:40:08.653Z,13.19
2019-03-04T22:42:35.549Z,13.23
2019-03-04T22:45:07.745Z,13.22
2019-03-04T22:47:34.581Z,13.26
2019-03-04T22:50:02.295Z,13.11
2019-03-04T22:52:29.218Z,13.08
2019-03-04T22:54:55.918Z,13.13
2019-03-04T22:57:22.612Z,13.10
2019-03-04T22:59:49.318Z,13.07
2019-03-04T23:02:17.116Z,13.06
2019-03-04T23:04:44.391Z,13.09
2019-03-04T23:07:11.318Z,13.15
2019-03-04T23:09:43.651Z,13.02
2019-03-04T23:12:15.673Z,13.03
2019-03-04T23:14:42.918Z,13.09
2019-03-04T23:17:09.732Z,12.91
2019-03-04T23:19:36.285Z,12.88
2019-03-04T23:22:04.027Z,12.90
2019-03-04T23:24:30.810Z,12.94
2019-03-04T23:26:57.400Z,12.74
2019-03-04T23:29:24.292Z,12.57
2019-03-04T23:31:50.869Z,12.56
2019-03-04T23:34:17.445Z,12.50
2019-03-04T23:36:44.339Z,12.45
2019-03-04T23:39:11.137Z,12.31
2019-03-04T23:41:37.943Z,12.23
2019-03-04T23:44:05.040Z,12.16
2019-03-04T23:46:31.669Z,11.91
2019-03-04T23:48:58.316Z,11.94
2019-03-04T23:51:24.992Z,11.68
2019-03-04T23:53:51.728Z,11.66
2019-03-04T23:56:18.685Z,11.40
2019-03-04T23:58:45.269Z,11.60
